Time;durP1;ratioP1;P1;durP2;ratioP2;P2;SDS_P1;SDS_P2;PMS_P1;PMS_P2;Temp;Humidity;BMP_temperature;BMP_pressure;BME280_temperature;BME280_humidity;BME280_pressure;Samples;Min_cycle;Max_cycle;Signal;HPM_P1;HPM_P2
2023/05/09 00:01:44;;;;;;;8.50;4.83;;;9.50;99.90;;;;;;4211301;28;20208;-80
2023/05/09 00:03:46;;;;;;;7.70;5.00;;;9.50;99.90;;;;;;4212198;28;20259;-80
2023/05/09 00:05:48;;;;;;;9.10;4.83;;;10.00;99.90;;;;;;4213069;28;20239;-81
2023/05/09 00:07:50;;;;;;;8.20;5.00;;;9.50;99.90;;;;;;4213887;28;20274;-80
2023/05/09 00:09:53;;;;;;;6.63;4.63;;;9.40;99.90;;;;;;4211920;28;20249;-80
2023/05/09 00:11:55;;;;;;;6.73;4.37;;;9.40;99.90;;;;;;4209565;28;20671;-82
2023/05/09 00:13:57;;;;;;;7.00;4.83;;;9.30;99.90;;;;;;4208529;28;20255;-81
2023/05/09 00:15:59;;;;;;;7.27;5.10;;;9.30;99.90;;;;;;4211306;28;20355;-81
2023/05/09 00:18:01;;;;;;;8.87;5.13;;;9.30;99.90;;;;;;4214272;28;20213;-81
2023/05/09 00:20:07;;;;;;;9.37;4.87;;;9.40;99.90;;;;;;4210339;28;20210;-80
2023/05/09 00:22:11;;;;;;;7.57;5.23;;;9.20;99.90;;;;;;4213883;28;20220;-81
2023/05/09 00:24:13;;;;;;;8.70;5.20;;;9.20;99.90;;;;;;4210724;28;20648;-80
2023/05/09 00:26:17;;;;;;;7.87;5.10;;;9.20;99.90;;;;;;4211137;28;20274;-79
2023/05/09 00:28:18;;;;;;;6.87;4.60;;;9.20;99.90;;;;;;4210971;28;20235;-80
2023/05/09 00:30:20;;;;;;;8.30;5.07;;;9.10;99.90;;;;;;4205997;28;20297;-80
2023/05/09 00:32:23;;;;;;;8.33;4.83;;;9.10;99.90;;;;;;4212193;28;20320;-80
2023/05/09 00:34:25;;;;;;;8.13;4.93;;;9.10;99.90;;;;;;4212560;28;20614;-80
2023/05/09 00:36:27;;;;;;;9.33;4.60;;;9.50;99.90;;;;;;4213410;28;20218;-80
2023/05/09 00:38:29;;;;;;;7.87;4.53;;;9.10;99.90;;;;;;4211659;28;20235;-80
2023/05/09 00:40:31;;;;;;;6.73;4.60;;;9.00;99.90;;;;;;4213488;28;20273;-80
2023/05/09 00:42:35;;;;;;;7.67;5.10;;;9.00;99.90;;;;;;4213788;28;20494;-80
2023/05/09 00:44:37;;;;;;;7.93;4.97;;;9.00;99.90;;;;;;4212113;28;20528;-80
2023/05/09 00:46:39;;;;;;;6.53;4.57;;;9.00;99.90;;;;;;4213156;28;20311;-82
2023/05/09 00:48:41;;;;;;;8.90;5.10;;;9.00;99.90;;;;;;4209452;28;20213;-78
2023/05/09 00:50:43;;;;;;;6.63;4.60;;;8.90;99.90;;;;;;4209753;28;20209;-80
2023/05/09 00:52:45;;;;;;;5.50;4.13;;;8.90;99.90;;;;;;4209298;28;20568;-80
2023/05/09 00:54:47;;;;;;;6.63;4.47;;;8.90;99.90;;;;;;4208646;28;20775;-80
2023/05/09 00:56:50;;;;;;;7.80;4.20;;;8.90;99.90;;;;;;4207068;28;20247;-77
2023/05/09 00:58:55;;;;;;;6.30;4.83;;;8.80;99.90;;;;;;4206892;28;20213;-78
2023/05/09 01:00:57;;;;;;;11.57;4.90;;;8.80;99.90;;;;;;4205012;28;20632;-78
2023/05/09 01:02:59;;;;;;;8.70;4.57;;;8.80;99.90;;;;;;4204149;28;20712;-78
2023/05/09 01:05:01;;;;;;;8.13;4.30;;;8.70;99.90;;;;;;4209005;28;20327;-78
2023/05/09 01:07:10;;;;;;;10.20;4.70;;;8.70;99.90;;;;;;4207243;28;20239;-77
2023/05/09 01:09:19;;;;;;;9.83;4.77;;;8.70;99.90;;;;;;4210184;28;20542;-78
2023/05/09 01:11:29;;;;;;;7.63;4.67;;;8.70;99.90;;;;;;4207481;28;20475;-77
2023/05/09 01:13:38;;;;;;;6.63;4.30;;;8.70;99.90;;;;;;4209042;28;20670;-77
2023/05/09 01:15:46;;;;;;;8.20;4.90;;;8.60;99.90;;;;;;4209576;28;20666;-78
2023/05/09 01:17:55;;;;;;;7.60;5.07;;;8.60;99.90;;;;;;4205025;28;20454;-78
2023/05/09 01:20:10;;;;;;;7.47;4.40;;;8.60;99.90;;;;;;4206817;28;20213;-77
2023/05/09 01:22:15;;;;;;;7.20;4.87;;;8.50;99.90;;;;;;4199567;28;20293;-77
2023/05/09 01:24:33;;;;;;;8.20;4.93;;;8.60;99.90;;;;;;4210226;28;20259;-78
2023/05/09 01:26:45;;;;;;;7.90;4.80;;;8.50;99.90;;;;;;4206004;28;20307;-78
2023/05/09 01:29:05;;;;;;;8.57;4.53;;;8.50;99.90;;;;;;4208822;28;20617;-78
2023/05/09 01:31:09;;;;;;;7.63;4.90;;;8.50;99.90;;;;;;4204836;28;20493;-78
2023/05/09 01:33:16;;;;;;;7.40;4.57;;;8.40;99.90;;;;;;4206757;28;20524;-78
2023/05/09 01:35:21;;;;;;;6.60;4.50;;;8.40;99.90;;;;;;4211085;28;20483;-79
2023/05/09 01:37:27;;;;;;;6.73;4.70;;;8.40;99.90;;;;;;4203823;28;20542;-78
2023/05/09 01:39:30;;;;;;;8.00;4.60;;;8.40;99.90;;;;;;4204035;28;20462;-78
2023/05/09 01:41:36;;;;;;;8.97;4.80;;;8.40;99.90;;;;;;4206832;28;20466;-78
2023/05/09 01:43:40;;;;;;;7.10;4.93;;;8.60;99.90;;;;;;4210075;28;20992;-77
2023/05/09 01:45:43;;;;;;;7.50;5.03;;;8.30;99.90;;;;;;4206122;28;20589;-78
2023/05/09 01:47:48;;;;;;;9.53;5.50;;;8.30;99.90;;;;;;4208217;28;20553;-78
2023/05/09 01:49:52;;;;;;;8.03;4.80;;;8.20;99.90;;;;;;4204575;28;20498;-78
2023/05/09 01:51:55;;;;;;;7.80;5.20;;;8.20;99.90;;;;;;4205084;28;20487;-78
2023/05/09 01:54:00;;;;;;;8.20;5.00;;;8.20;99.90;;;;;;4205451;28;21341;-78
2023/05/09 01:56:04;;;;;;;8.23;5.00;;;8.10;99.90;;;;;;4213266;28;20469;-78
2023/05/09 01:58:06;;;;;;;8.43;4.90;;;8.20;99.90;;;;;;4211080;28;20485;-78
2023/05/09 02:00:11;;;;;;;6.60;4.60;;;8.10;99.90;;;;;;4212356;28;20473;-78
2023/05/09 02:02:14;;;;;;;6.53;4.87;;;8.10;99.90;;;;;;4219274;28;20451;-78
2023/05/09 02:04:18;;;;;;;8.20;4.60;;;8.00;99.90;;;;;;4211321;28;21036;-78
2023/05/09 02:06:23;;;;;;;6.80;4.60;;;8.00;99.90;;;;;;4204178;28;21736;-78
2023/05/09 02:08:25;;;;;;;6.40;4.57;;;8.00;99.90;;;;;;4204839;28;20550;-78
2023/05/09 02:10:28;;;;;;;8.57;5.07;;;7.90;99.90;;;;;;4209309;28;20536;-78
2023/05/09 02:12:30;;;;;;;6.57;4.50;;;7.90;99.90;;;;;;4209929;28;20479;-78
2023/05/09 02:14:32;;;;;;;10.43;4.47;;;7.90;99.90;;;;;;4209321;28;20463;-78
2023/05/09 02:16:34;;;;;;;7.43;4.70;;;7.90;99.90;;;;;;4210886;28;20518;-78
2023/05/09 02:18:36;;;;;;;7.53;5.13;;;7.90;99.90;;;;;;4209610;28;20462;-78
2023/05/09 02:20:39;;;;;;;8.23;4.63;;;7.90;99.90;;;;;;4209331;28;20478;-78
2023/05/09 02:22:43;;;;;;;7.07;4.70;;;7.80;99.90;;;;;;4215258;28;20542;-78
2023/05/09 02:24:45;;;;;;;12.00;4.60;;;7.80;99.90;;;;;;4211965;28;20544;-78
2023/05/09 02:26:47;;;;;;;7.37;4.57;;;7.80;99.90;;;;;;4209460;28;20466;-78
2023/05/09 02:28:50;;;;;;;8.77;4.90;;;7.80;99.90;;;;;;4213339;28;20558;-78
2023/05/09 02:30:55;;;;;;;8.20;5.30;;;7.80;99.90;;;;;;4209926;28;20906;-78
2023/05/09 02:33:01;;;;;;;10.90;4.67;;;7.80;99.90;;;;;;4209838;28;20553;-78
2023/05/09 02:35:04;;;;;;;7.10;4.57;;;7.70;99.90;;;;;;4206282;28;20484;-78
2023/05/09 02:37:08;;;;;;;6.03;4.17;;;7.60;99.90;;;;;;4204661;28;20455;-78
2023/05/09 02:39:10;;;;;;;7.20;4.30;;;7.60;99.90;;;;;;4205477;28;21161;-78
2023/05/09 02:41:13;;;;;;;7.20;4.73;;;7.60;99.90;;;;;;4203349;28;20463;-77
2023/05/09 02:43:15;;;;;;;8.60;4.80;;;7.60;99.90;;;;;;4203760;28;20489;-78
2023/05/09 02:45:17;;;;;;;8.83;4.70;;;7.60;99.90;;;;;;4208207;28;20485;-78
2023/05/09 02:47:20;;;;;;;8.63;4.80;;;7.70;99.90;;;;;;4209375;28;20553;-79
2023/05/09 02:49:22;;;;;;;7.53;4.27;;;7.50;99.90;;;;;;4208133;28;20466;-78
2023/05/09 02:51:24;;;;;;;7.67;4.70;;;7.50;99.90;;;;;;4209151;28;20546;-75
2023/05/09 02:53:27;;;;;;;9.00;4.37;;;7.50;99.90;;;;;;4210372;28;20581;-78
2023/05/09 02:55:29;;;;;;;8.10;4.37;;;7.10;99.90;;;;;;4210327;28;20932;-78
2023/05/09 02:57:31;;;;;;;9.97;4.80;;;7.40;99.90;;;;;;4210994;28;20545;-78
2023/05/09 02:59:33;;;;;;;7.53;4.53;;;7.40;99.90;;;;;;4209455;28;20538;-79
2023/05/09 03:01:35;;;;;;;7.30;4.67;;;7.40;99.90;;;;;;4215400;28;20557;-78
2023/05/09 03:03:36;;;;;;;8.27;4.73;;;7.40;99.90;;;;;;4214792;28;20459;-78
2023/05/09 03:05:38;;;;;;;8.87;4.63;;;7.30;99.90;;;;;;4211254;28;20562;-77
2023/05/09 03:07:44;;;;;;;7.73;4.50;;;7.30;99.90;;;;;;4205317;28;20959;-79
2023/05/09 03:09:48;;;;;;;8.67;4.70;;;7.30;99.90;;;;;;4208567;28;21083;-78
2023/05/09 03:11:50;;;;;;;9.03;5.00;;;7.20;99.90;;;;;;4206923;28;20460;-78
2023/05/09 03:13:52;;;;;;;8.40;4.30;;;7.30;99.90;;;;;;4211700;28;21011;-78
2023/05/09 03:15:54;;;;;;;6.30;4.33;;;7.30;99.90;;;;;;4207246;28;21059;-78
2023/05/09 03:17:56;;;;;;;7.70;4.37;;;7.20;99.90;;;;;;4203950;28;20892;-79
2023/05/09 03:19:58;;;;;;;8.97;5.27;;;7.20;99.90;;;;;;4209628;28;20466;-78
2023/05/09 03:21:59;;;;;;;7.80;4.60;;;7.20;99.90;;;;;;4210156;28;20457;-78
2023/05/09 03:24:03;;;;;;;8.93;4.73;;;7.20;99.90;;;;;;4209221;28;20543;-79
2023/05/09 03:26:06;;;;;;;7.27;4.40;;;7.20;99.90;;;;;;4209561;28;20933;-78
2023/05/09 03:28:08;;;;;;;9.63;4.33;;;7.20;99.90;;;;;;4209433;28;20493;-79
2023/05/09 03:30:11;;;;;;;7.23;4.37;;;7.20;99.90;;;;;;4208140;28;20901;-78
2023/05/09 03:32:13;;;;;;;8.20;4.70;;;7.10;99.90;;;;;;4210597;28;20470;-78
2023/05/09 03:34:15;;;;;;;10.17;4.90;;;7.10;99.90;;;;;;4212082;28;20984;-78
2023/05/09 03:36:17;;;;;;;9.23;4.90;;;7.10;99.90;;;;;;4210065;28;20559;-79
2023/05/09 03:38:18;;;;;;;9.00;5.13;;;7.10;99.90;;;;;;4202315;28;20921;-79
2023/05/09 03:40:21;;;;;;;8.73;5.00;;;7.10;99.90;;;;;;4207302;28;20582;-78
2023/05/09 03:42:24;;;;;;;8.97;4.73;;;7.10;99.90;;;;;;4209277;28;20830;-79
2023/05/09 03:44:26;;;;;;;8.53;4.70;;;7.20;99.90;;;;;;4210715;28;20835;-78
2023/05/09 03:46:28;;;;;;;9.20;4.83;;;7.20;99.90;;;;;;4209516;28;20479;-79
2023/05/09 03:48:30;;;;;;;9.73;4.90;;;7.00;99.90;;;;;;4208226;28;20562;-78
2023/05/09 03:50:31;;;;;;;7.60;4.60;;;7.00;99.90;;;;;;4208058;28;20478;-79
2023/05/09 03:52:33;;;;;;;9.63;5.17;;;7.00;99.90;;;;;;4210858;28;20489;-78
2023/05/09 03:54:35;;;;;;;6.23;4.20;;;7.00;99.90;;;;;;4208617;28;20577;-78
2023/05/09 03:56:37;;;;;;;7.57;4.80;;;7.00;99.90;;;;;;4209508;28;21212;-78
2023/05/09 03:58:41;;;;;;;9.47;4.73;;;7.00;99.90;;;;;;4205866;28;20554;-79
2023/05/09 04:00:43;;;;;;;8.93;4.87;;;7.00;99.90;;;;;;4209666;28;20547;-79
2023/05/09 04:02:44;;;;;;;6.57;4.60;;;7.00;99.90;;;;;;4210559;28;20500;-78
2023/05/09 04:04:48;;;;;;;9.27;4.77;;;7.00;99.90;;;;;;4210231;28;20561;-78
2023/05/09 04:06:50;;;;;;;7.57;4.77;;;6.80;99.90;;;;;;4205927;28;20825;-78
2023/05/09 04:08:52;;;;;;;7.47;4.27;;;7.00;99.90;;;;;;4206820;28;21384;-78
2023/05/09 04:10:54;;;;;;;9.40;4.67;;;7.00;99.90;;;;;;4200807;28;20451;-79
2023/05/09 04:12:56;;;;;;;9.33;4.90;;;7.00;99.90;;;;;;4198398;28;20487;-77
2023/05/09 04:14:59;;;;;;;6.40;4.30;;;7.00;99.90;;;;;;4203209;28;20947;-77
2023/05/09 04:17:02;;;;;;;8.60;4.73;;;7.00;99.90;;;;;;4208025;28;20458;-78
2023/05/09 04:19:03;;;;;;;8.97;4.80;;;7.00;99.90;;;;;;4207210;28;20550;-78
2023/05/09 04:21:05;;;;;;;8.73;4.30;;;7.00;99.90;;;;;;4205576;28;20561;-78
2023/05/09 04:23:07;;;;;;;9.73;5.00;;;7.00;99.90;;;;;;4204235;28;21019;-77
2023/05/09 04:25:11;;;;;;;6.80;4.50;;;7.00;99.90;;;;;;4205500;28;20521;-77
2023/05/09 04:27:13;;;;;;;7.50;4.43;;;7.00;99.90;;;;;;4203508;28;20470;-77
2023/05/09 04:29:15;;;;;;;10.97;5.23;;;7.00;99.90;;;;;;4206369;28;21289;-77
2023/05/09 04:31:19;;;;;;;7.60;4.70;;;7.00;99.90;;;;;;4204911;28;20478;-77
2023/05/09 04:33:23;;;;;;;9.03;5.17;;;7.00;99.90;;;;;;4201302;28;20556;-77
2023/05/09 04:35:25;;;;;;;8.30;4.13;;;7.00;99.90;;;;;;4200910;28;20490;-77
2023/05/09 04:37:27;;;;;;;10.23;4.27;;;7.00;99.90;;;;;;4203040;28;20484;-77
2023/05/09 04:39:29;;;;;;;7.57;4.30;;;7.00;99.90;;;;;;4208498;28;20477;-77
2023/05/09 04:41:31;;;;;;;8.43;4.33;;;7.00;99.90;;;;;;4205577;28;20467;-77
2023/05/09 04:43:34;;;;;;;11.77;6.20;;;7.00;99.90;;;;;;4206655;28;20459;-78
2023/05/09 04:45:36;;;;;;;8.63;5.13;;;7.10;99.90;;;;;;4207943;28;20991;-77
2023/05/09 04:47:39;;;;;;;10.17;4.83;;;7.10;99.90;;;;;;4206403;28;20469;-78
2023/05/09 04:49:41;;;;;;;9.77;4.97;;;7.10;99.90;;;;;;4201933;28;20477;-77
2023/05/09 04:51:43;;;;;;;11.67;4.93;;;7.10;99.90;;;;;;4204881;28;20908;-78
2023/05/09 04:53:45;;;;;;;8.43;4.70;;;7.10;99.90;;;;;;4206073;28;20486;-77
2023/05/09 04:55:46;;;;;;;8.10;5.27;;;7.10;99.90;;;;;;4209189;28;20509;-77
2023/05/09 04:57:48;;;;;;;9.37;4.53;;;7.10;99.90;;;;;;4208192;28;20475;-77
2023/05/09 04:59:51;;;;;;;8.60;4.70;;;7.10;99.90;;;;;;4206714;28;20497;-76
2023/05/09 05:01:53;;;;;;;9.53;5.00;;;7.10;99.90;;;;;;4206217;28;20462;-78
2023/05/09 05:03:56;;;;;;;10.00;5.00;;;7.20;99.90;;;;;;4206796;28;20467;-77
2023/05/09 05:05:58;;;;;;;8.93;4.83;;;7.20;99.90;;;;;;4214398;28;21000;-79
2023/05/09 05:08:00;;;;;;;7.40;4.60;;;7.20;99.90;;;;;;4208940;28;20494;-77
2023/05/09 05:10:02;;;;;;;8.23;4.60;;;7.20;99.90;;;;;;4208963;28;20465;-77
2023/05/09 05:12:06;;;;;;;8.63;4.93;;;7.30;99.90;;;;;;4207081;28;20589;-78
2023/05/09 05:14:07;;;;;;;8.20;4.67;;;7.30;99.90;;;;;;4205135;28;20482;-77
2023/05/09 05:16:09;;;;;;;8.60;4.90;;;7.30;99.90;;;;;;4211195;28;20467;-77
2023/05/09 05:18:11;;;;;;;9.83;4.77;;;7.30;99.90;;;;;;4209021;28;20459;-77
2023/05/09 05:20:14;;;;;;;7.37;4.80;;;7.40;99.90;;;;;;4205485;28;20466;-77
2023/05/09 05:22:16;;;;;;;10.30;4.93;;;7.30;99.90;;;;;;4205662;28;20549;-77
2023/05/09 05:24:18;;;;;;;9.90;5.07;;;7.40;99.90;;;;;;4208562;28;20511;-78
2023/05/09 05:26:20;;;;;;;10.37;4.87;;;7.40;99.90;;;;;;4205159;28;20469;-77
2023/05/09 05:28:22;;;;;;;8.07;4.80;;;7.40;99.90;;;;;;4207538;28;21225;-77
2023/05/09 05:30:24;;;;;;;9.40;4.83;;;7.50;99.90;;;;;;4207814;28;21053;-77
2023/05/09 05:32:26;;;;;;;7.03;4.37;;;7.50;99.90;;;;;;4211371;28;20541;-77
2023/05/09 05:34:28;;;;;;;7.57;4.33;;;7.60;99.90;;;;;;4211752;28;20564;-77
2023/05/09 05:36:32;;;;;;;8.20;5.00;;;7.60;99.90;;;;;;4216185;28;20463;-77
2023/05/09 05:38:34;;;;;;;7.80;4.40;;;7.70;99.90;;;;;;4209937;28;20448;-77
2023/05/09 05:40:36;;;;;;;11.40;4.63;;;7.70;99.90;;;;;;4206941;28;20554;-77
2023/05/09 05:42:38;;;;;;;6.03;4.20;;;7.70;99.90;;;;;;4209315;28;20554;-77
2023/05/09 05:44:40;;;;;;;7.80;4.40;;;7.70;99.90;;;;;;4210230;28;20501;-77
2023/05/09 05:46:42;;;;;;;8.40;4.73;;;7.70;99.90;;;;;;4209922;28;20479;-77
2023/05/09 05:48:44;;;;;;;8.03;4.17;;;7.80;99.90;;;;;;4208097;28;20541;-77
2023/05/09 05:50:45;;;;;;;6.80;4.60;;;7.80;99.90;;;;;;4201527;28;21308;-77
2023/05/09 05:52:49;;;;;;;11.27;4.50;;;7.80;99.90;;;;;;4204827;28;20490;-76
2023/05/09 05:54:51;;;;;;;6.73;4.40;;;7.90;99.90;;;;;;4206387;28;20517;-75
2023/05/09 05:56:53;;;;;;;6.57;4.27;;;7.90;99.90;;;;;;4207691;28;20633;-77
2023/05/09 05:58:55;;;;;;;7.27;4.20;;;8.00;99.90;;;;;;4209266;28;20945;-77
2023/05/09 06:00:57;;;;;;;6.43;4.23;;;8.00;99.90;;;;;;4205625;28;21465;-77
2023/05/09 06:02:58;;;;;;;9.00;4.40;;;8.00;99.90;;;;;;4210317;28;20462;-77
2023/05/09 06:05:02;;;;;;;8.17;4.50;;;8.10;99.90;;;;;;4209683;28;20574;-77
2023/05/09 06:07:04;;;;;;;7.83;4.30;;;8.10;99.90;;;;;;4213167;28;20451;-77
2023/05/09 06:09:07;;;;;;;7.27;3.93;;;8.10;99.90;;;;;;4209123;28;20874;-78
2023/05/09 06:11:09;;;;;;;6.37;4.20;;;8.10;99.90;;;;;;4206949;28;20527;-77
2023/05/09 06:13:11;;;;;;;9.17;4.47;;;8.20;99.90;;;;;;4208328;28;20539;-77
2023/05/09 06:15:13;;;;;;;9.30;4.43;;;8.20;99.90;;;;;;4212053;28;20485;-77
2023/05/09 06:17:18;;;;;;;6.90;4.00;;;8.30;99.90;;;;;;4214743;28;20455;-77
2023/05/09 06:19:20;;;;;;;6.40;4.00;;;8.30;99.90;;;;;;4208841;28;20493;-77
2023/05/09 06:21:25;;;;;;;9.37;4.03;;;8.40;99.90;;;;;;4207718;28;20213;-79
2023/05/09 06:23:32;;;;;;;6.27;4.00;;;8.40;99.90;;;;;;4209712;28;20209;-77
2023/05/09 06:25:35;;;;;;;7.80;4.57;;;8.50;99.90;;;;;;4211247;28;20653;-77
2023/05/09 06:27:37;;;;;;;7.00;4.17;;;8.50;99.90;;;;;;4207840;28;20240;-77
2023/05/09 06:29:39;;;;;;;7.10;3.93;;;8.60;99.90;;;;;;4213300;28;20209;-77
2023/05/09 06:31:44;;;;;;;6.10;3.90;;;8.50;99.90;;;;;;4212934;28;20209;-77
2023/05/09 06:33:46;;;;;;;6.07;3.60;;;8.70;99.90;;;;;;4212349;28;20232;-77
2023/05/09 06:35:48;;;;;;;6.70;3.47;;;8.80;99.90;;;;;;4213407;28;20321;-77
2023/05/09 06:37:50;;;;;;;6.67;3.70;;;8.80;99.90;;;;;;4213498;28;20248;-77
2023/05/09 06:39:52;;;;;;;9.83;4.57;;;8.90;99.90;;;;;;4215398;28;20247;-77
2023/05/09 06:41:55;;;;;;;9.60;4.07;;;8.90;99.90;;;;;;4209251;28;20212;-77
2023/05/09 06:43:57;;;;;;;7.57;3.90;;;9.00;99.90;;;;;;4213364;28;20300;-77
2023/05/09 06:45:59;;;;;;;5.47;3.57;;;9.00;99.90;;;;;;4206498;28;20229;-77
2023/05/09 06:48:05;;;;;;;6.20;3.67;;;9.10;99.90;;;;;;4208032;28;20232;-77
2023/05/09 06:50:08;;;;;;;6.13;3.60;;;9.10;99.90;;;;;;4211767;28;20217;-78
2023/05/09 06:52:11;;;;;;;14.23;4.17;;;9.20;99.90;;;;;;4211348;28;20348;-77
2023/05/09 06:54:13;;;;;;;6.27;3.57;;;9.30;99.90;;;;;;4210050;28;20218;-77
2023/05/09 06:56:18;;;;;;;6.23;3.17;;;9.40;99.90;;;;;;4210037;28;20275;-77
2023/05/09 06:58:22;;;;;;;8.43;3.70;;;9.40;99.90;;;;;;4206924;28;20215;-78
2023/05/09 07:00:24;;;;;;;7.13;3.50;;;9.50;99.90;;;;;;4212399;28;20312;-78
2023/05/09 07:02:26;;;;;;;6.70;3.60;;;9.50;99.90;;;;;;4209326;28;20218;-78
2023/05/09 07:04:28;;;;;;;6.97;4.00;;;9.60;99.90;;;;;;4204856;28;20226;-77
2023/05/09 07:06:30;;;;;;;7.50;4.30;;;9.60;99.90;;;;;;4209957;28;20216;-78
2023/05/09 07:08:32;;;;;;;6.40;3.90;;;9.70;99.90;;;;;;4211325;28;20201;-78
2023/05/09 07:10:34;;;;;;;4.93;3.37;;;9.80;99.90;;;;;;4212524;28;20292;-78
2023/05/09 07:12:36;;;;;;;6.93;4.20;;;9.80;99.90;;;;;;4211023;28;20230;-78
2023/05/09 07:14:40;;;;;;;8.30;3.60;;;9.90;99.90;;;;;;4214005;28;20249;-78
2023/05/09 07:16:42;;;;;;;7.43;3.37;;;10.00;99.90;;;;;;4213317;28;20296;-77
2023/05/09 07:18:44;;;;;;;6.27;3.87;;;10.00;99.90;;;;;;4207820;28;21188;-78
2023/05/09 07:20:46;;;;;;;6.33;3.40;;;10.10;99.90;;;;;;4209221;28;20265;-78
2023/05/09 07:22:48;;;;;;;5.03;3.33;;;10.20;99.90;;;;;;4210839;28;20214;-76
2023/05/09 07:24:50;;;;;;;7.83;3.93;;;10.30;99.90;;;;;;4209551;28;20243;-79
2023/05/09 07:26:53;;;;;;;4.70;3.37;;;10.30;99.90;;;;;;4214088;28;20294;-78
2023/05/09 07:28:54;;;;;;;7.43;3.43;;;10.40;99.90;;;;;;4214765;28;20207;-79
2023/05/09 07:30:58;;;;;;;6.83;3.47;;;10.40;99.90;;;;;;4208730;28;20207;-78
2023/05/09 07:33:00;;;;;;;5.50;3.67;;;10.50;99.90;;;;;;4215279;28;20711;-78
2023/05/09 07:35:02;;;;;;;5.50;3.20;;;10.60;99.90;;;;;;4217421;28;20234;-80
2023/05/09 07:37:04;;;;;;;8.47;3.77;;;10.80;99.90;;;;;;4219952;28;20207;-80
2023/05/09 07:39:06;;;;;;;7.07;3.70;;;10.70;99.90;;;;;;4220039;28;20208;-79
2023/05/09 07:41:08;;;;;;;6.33;3.37;;;10.80;99.90;;;;;;4219561;28;20219;-79
2023/05/09 07:43:10;;;;;;;4.67;3.00;;;10.90;99.90;;;;;;4223136;28;20303;-80
2023/05/09 07:45:12;;;;;;;5.60;3.30;;;10.90;99.90;;;;;;4222750;28;20287;-79
2023/05/09 07:47:16;;;;;;;10.47;3.90;;;11.00;99.90;;;;;;4212142;28;20207;-80
2023/05/09 07:49:17;;;;;;;8.10;3.87;;;11.00;99.90;;;;;;4211318;28;20200;-79
2023/05/09 07:51:19;;;;;;;7.87;3.70;;;11.10;99.90;;;;;;4214196;28;20243;-79
2023/05/09 07:53:21;;;;;;;7.63;3.93;;;11.20;99.90;;;;;;4203771;28;20212;-79
2023/05/09 07:55:23;;;;;;;4.67;3.27;;;11.20;99.90;;;;;;4212290;28;20240;-78
2023/05/09 07:57:25;;;;;;;7.83;3.37;;;11.30;99.90;;;;;;4216053;28;20674;-79
2023/05/09 07:59:27;;;;;;;6.87;3.80;;;11.30;99.90;;;;;;4205870;28;20197;-78
2023/05/09 08:01:29;;;;;;;6.87;3.30;;;11.40;99.90;;;;;;4225624;28;20231;-79
2023/05/09 08:03:32;;;;;;;10.50;3.97;;;11.40;99.90;;;;;;4227551;28;20234;-79
2023/05/09 08:05:34;;;;;;;8.27;3.77;;;11.50;99.90;;;;;;4232216;28;20212;-78
2023/05/09 08:07:36;;;;;;;5.47;3.57;;;11.60;99.90;;;;;;4231499;28;20258;-78
2023/05/09 08:09:38;;;;;;;5.20;3.20;;;11.70;99.90;;;;;;4230325;28;20216;-79
2023/05/09 08:11:40;;;;;;;6.20;3.23;;;11.70;99.90;;;;;;4232457;28;20209;-79
2023/05/09 08:13:42;;;;;;;5.70;2.97;;;11.80;99.90;;;;;;4223714;28;20243;-79
2023/05/09 08:15:44;;;;;;;4.77;2.90;;;11.80;99.90;;;;;;4202091;28;20333;-79
2023/05/09 08:17:46;;;;;;;7.37;3.30;;;11.90;99.90;;;;;;4213600;28;20306;-79
2023/05/09 08:19:49;;;;;;;5.63;3.33;;;12.00;99.90;;;;;;4208951;28;20212;-79
2023/05/09 08:21:51;;;;;;;6.17;2.73;;;12.00;99.90;;;;;;4211462;28;20236;-79
2023/05/09 08:23:53;;;;;;;3.60;2.77;;;12.20;99.90;;;;;;4211889;28;20235;-79
2023/05/09 08:25:55;;;;;;;5.60;2.77;;;12.20;99.90;;;;;;4214566;28;20877;-79
2023/05/09 08:27:57;;;;;;;7.37;2.93;;;12.30;99.90;;;;;;4214514;28;20279;-79
2023/05/09 08:29:59;;;;;;;6.53;3.00;;;12.30;99.90;;;;;;4220200;28;20231;-80
2023/05/09 08:32:01;;;;;;;6.53;2.93;;;12.40;99.90;;;;;;4214162;28;20220;-80
2023/05/09 08:34:03;;;;;;;7.10;3.13;;;12.50;99.90;;;;;;4215968;28;20219;-80
2023/05/09 08:36:07;;;;;;;4.83;2.63;;;12.50;99.90;;;;;;4222616;28;20237;-79
2023/05/09 08:38:09;;;;;;;5.17;2.90;;;12.60;99.90;;;;;;4214373;28;20199;-80
2023/05/09 08:40:11;;;;;;;6.03;3.27;;;12.70;99.90;;;;;;4218417;28;20869;-80
2023/05/09 08:42:17;;;;;;;6.07;2.90;;;12.80;99.90;;;;;;4210621;28;20655;-79
2023/05/09 08:44:20;;;;;;;5.00;2.70;;;12.80;99.90;;;;;;4229544;28;20189;-77
2023/05/09 08:46:27;;;;;;;4.73;2.77;;;12.90;99.90;;;;;;4224743;28;20258;-77
2023/05/09 08:48:31;;;;;;;5.33;2.80;;;13.00;99.90;;;;;;4215382;28;20204;-78
2023/05/09 08:50:34;;;;;;;6.80;2.70;;;13.10;99.90;;;;;;4219370;28;20284;-77
2023/05/09 08:52:38;;;;;;;5.37;2.90;;;13.20;99.90;;;;;;4221442;28;20212;-77
2023/05/09 08:54:40;;;;;;;5.37;3.10;;;13.30;99.90;;;;;;4222498;28;20306;-77
2023/05/09 08:56:42;;;;;;;5.37;2.87;;;13.40;99.90;;;;;;4221042;28;20205;-77
2023/05/09 08:58:45;;;;;;;3.67;2.43;;;13.50;99.90;;;;;;4216705;28;20228;-77
2023/05/09 09:00:48;;;;;;;3.53;2.70;;;13.60;99.90;;;;;;4209875;28;20246;-77
2023/05/09 09:02:51;;;;;;;6.23;2.60;;;13.60;99.90;;;;;;4211714;28;20216;-78
2023/05/09 09:04:56;;;;;;;4.27;2.60;;;13.70;99.90;;;;;;4217232;28;20221;-78
2023/05/09 09:06:59;;;;;;;6.00;3.00;;;13.80;99.90;;;;;;4214256;28;20247;-77
2023/05/09 09:09:05;;;;;;;6.33;2.70;;;13.90;99.90;;;;;;4212918;28;20248;-77
2023/05/09 09:11:10;;;;;;;3.97;2.90;;;14.00;99.90;;;;;;4206274;28;20302;-78
2023/05/09 09:13:13;;;;;;;5.53;2.70;;;14.10;99.90;;;;;;4212155;28;20247;-77
2023/05/09 09:15:16;;;;;;;5.53;2.73;;;14.20;99.90;;;;;;4209182;28;20311;-77
2023/05/09 09:17:20;;;;;;;4.57;2.73;;;14.30;99.90;;;;;;4213031;28;20300;-77
2023/05/09 09:19:25;;;;;;;4.60;2.70;;;14.40;99.90;;;;;;4206312;28;20238;-77
2023/05/09 09:21:27;;;;;;;5.57;2.57;;;14.40;99.90;;;;;;4211157;28;20270;-78
2023/05/09 09:23:30;;;;;;;4.93;2.73;;;14.50;99.90;;;;;;4214732;28;21919;-78
2023/05/09 09:25:33;;;;;;;4.67;2.80;;;14.60;99.90;;;;;;4213518;28;20639;-78
2023/05/09 09:27:35;;;;;;;7.93;2.93;;;14.70;99.90;;;;;;4207467;28;20671;-78
2023/05/09 09:29:40;;;;;;;3.97;2.40;;;14.80;99.90;;;;;;4213125;28;20522;-78
2023/05/09 09:31:45;;;;;;;5.33;2.50;;;14.90;99.90;;;;;;4211726;28;20646;-78
2023/05/09 09:33:47;;;;;;;3.70;2.53;;;15.00;99.90;;;;;;4211721;28;20329;-74
2023/05/09 09:35:50;;;;;;;4.13;2.27;;;15.10;99.90;;;;;;4210048;28;20225;-76
2023/05/09 09:37:57;;;;;;;5.53;2.40;;;15.20;99.90;;;;;;4206344;28;20666;-76
2023/05/09 09:39:59;;;;;;;6.23;3.30;;;15.30;99.90;;;;;;4215456;28;20211;-77
2023/05/09 09:42:13;;;;;;;6.03;2.73;;;15.40;99.90;;;;;;4217917;28;20205;-76
2023/05/09 09:44:16;;;;;;;3.83;2.73;;;15.60;99.90;;;;;;4211518;28;20209;-76
2023/05/09 09:46:18;;;;;;;7.57;2.70;;;15.60;99.90;;;;;;4212906;28;20201;-75
2023/05/09 09:48:24;;;;;;;8.17;3.30;;;15.80;99.90;;;;;;4214025;28;20200;-77
2023/05/09 09:50:26;;;;;;;5.10;2.63;;;15.90;99.90;;;;;;4211797;28;20315;-74
2023/05/09 09:52:28;;;;;;;4.67;2.60;;;16.00;99.90;;;;;;4213854;28;20576;-77
2023/05/09 09:54:32;;;;;;;3.93;2.40;;;16.10;99.90;;;;;;4208561;28;20275;-74
2023/05/09 09:56:46;;;;;;;10.73;2.70;;;16.20;99.90;;;;;;4213488;28;20618;-75
2023/05/09 09:58:49;;;;;;;3.60;2.27;;;16.30;99.90;;;;;;4210025;28;20216;-77
2023/05/09 10:01:05;;;;;;;2.80;2.03;;;16.50;99.90;;;;;;4208141;28;20213;-77
2023/05/09 10:03:14;;;;;;;3.73;2.20;;;16.50;99.90;;;;;;4213269;28;20331;-77
2023/05/09 10:05:23;;;;;;;4.17;2.60;;;16.60;99.90;;;;;;4213483;28;20228;-76
2023/05/09 10:07:25;;;;;;;3.63;2.60;;;16.70;99.90;;;;;;4206485;28;20204;-77
2023/05/09 10:09:28;;;;;;;3.70;2.00;;;16.80;99.90;;;;;;4208097;28;20225;-78
2023/05/09 10:11:30;;;;;;;6.33;2.60;;;16.80;99.90;;;;;;4208779;28;20220;-76
2023/05/09 10:13:36;;;;;;;3.77;2.57;;;17.00;99.90;;;;;;4211840;28;20292;-77
2023/05/09 10:15:41;;;;;;;3.67;2.50;;;17.10;99.90;;;;;;4213094;28;20241;-76
2023/05/09 10:17:43;;;;;;;4.07;2.43;;;17.20;99.90;;;;;;4213303;28;20695;-77
2023/05/09 10:19:47;;;;;;;3.67;2.30;;;17.30;99.90;;;;;;4209917;28;20203;-77
2023/05/09 10:21:52;;;;;;;4.80;2.40;;;17.30;99.90;;;;;;4208781;28;20302;-76
2023/05/09 10:23:55;;;;;;;5.13;2.47;;;17.50;98.00;;;;;;4213014;28;20302;-79
2023/05/09 10:26:04;;;;;;;3.80;2.13;;;17.60;98.40;;;;;;4212214;28;20255;-77
2023/05/09 10:28:12;;;;;;;3.87;2.37;;;17.70;99.20;;;;;;4209117;28;20242;-77
2023/05/09 10:30:18;;;;;;;5.97;2.23;;;17.80;99.90;;;;;;4206902;28;20244;-77
2023/05/09 10:32:26;;;;;;;8.17;2.27;;;17.90;98.70;;;;;;4210068;28;20262;-77
2023/05/09 10:34:31;;;;;;;4.40;2.50;;;18.00;97.00;;;;;;4209212;28;20254;-77
2023/05/09 10:36:33;;;;;;;8.80;2.73;;;18.20;99.90;;;;;;4211233;28;20262;-78
2023/05/09 10:38:35;;;;;;;5.83;2.37;;;18.30;93.60;;;;;;4215629;28;20302;-77
2023/05/09 10:40:37;;;;;;;3.30;2.03;;;18.40;99.90;;;;;;4209109;28;20220;-77
2023/05/09 10:42:40;;;;;;;3.30;2.17;;;18.50;99.90;;;;;;4214858;28;20236;-77
2023/05/09 10:44:42;;;;;;;4.10;2.27;;;18.60;96.50;;;;;;4212526;28;20256;-78
2023/05/09 10:46:45;;;;;;;3.47;2.00;;;18.70;77.00;;;;;;4214032;28;20208;-78